Terminal Aerodrome Forecast
Issued by NWS

Home | Current Version | Previous Version | Text Only | Print | Product List | Glossary On
Versions: 1 2 3 4 5 6 7 8 9 10 11 12
795
FTPA31 PHFO 290528
TAFHKO
TAF
PHKO 290528Z 2906/3006 21007KT P6SM FEW030 SCT060
     FM290800 13005KT P6SM FEW030 SCT060
     FM292000 30011KT P6SM FEW030 SCT060
     FM300300 20010KT P6SM FEW030 SCT060=

USA.gov is the U.S. government's official web portal to all federal, state and local government web resources and services.